sensor_id;sensor_type;location;lat;lon;timestamp;temperature;humidity
15700;DHT22;7950;42.744;23.174;2024-02-04T00:00:15;5.20;99.90
15700;DHT22;7950;42.744;23.174;2024-02-04T00:02:45;5.20;99.90
15700;DHT22;7950;42.744;23.174;2024-02-04T00:05:13;5.20;99.90
15700;DHT22;7950;42.744;23.174;2024-02-04T00:07:43;5.20;99.90
15700;DHT22;7950;42.744;23.174;2024-02-04T00:10:13;5.30;99.90
15700;DHT22;7950;42.744;23.174;2024-02-04T00:12:42;5.30;99.90
15700;DHT22;7950;42.744;23.174;2024-02-04T00:15:11;5.30;99.90
15700;DHT22;7950;42.744;23.174;2024-02-04T00:17:39;5.40;99.90
15700;DHT22;7950;42.744;23.174;2024-02-04T00:20:09;5.30;99.90
15700;DHT22;7950;42.744;23.174;2024-02-04T00:22:37;5.40;99.90
15700;DHT22;7950;42.744;23.174;2024-02-04T00:25:08;5.50;99.90
15700;DHT22;7950;42.744;23.174;2024-02-04T00:27:39;5.50;99.90
15700;DHT22;7950;42.744;23.174;2024-02-04T00:30:08;5.50;99.90
15700;DHT22;7950;42.744;23.174;2024-02-04T00:32:37;5.50;99.90
15700;DHT22;7950;42.744;23.174;2024-02-04T00:35:06;5.60;99.90
15700;DHT22;7950;42.744;23.174;2024-02-04T00:37:35;5.60;99.90
15700;DHT22;7950;42.744;23.174;2024-02-04T00:40:05;5.60;99.90
15700;DHT22;7950;42.744;23.174;2024-02-04T00:42:36;5.50;99.90
15700;DHT22;7950;42.744;23.174;2024-02-04T00:45:06;5.60;99.90
15700;DHT22;7950;42.744;23.174;2024-02-04T00:47:35;5.60;99.90
15700;DHT22;7950;42.744;23.174;2024-02-04T00:50:04;5.60;99.90
15700;DHT22;7950;42.744;23.174;2024-02-04T00:52:33;5.70;99.90
15700;DHT22;7950;42.744;23.174;2024-02-04T00:55:02;5.70;99.90
15700;DHT22;7950;42.744;23.174;2024-02-04T00:57:32;5.80;99.90
15700;DHT22;7950;42.744;23.174;2024-02-04T01:00:00;5.90;99.90
15700;DHT22;7950;42.744;23.174;2024-02-04T01:02:30;6.10;99.90
15700;DHT22;7950;42.744;23.174;2024-02-04T01:04:59;6.10;99.90
15700;DHT22;7950;42.744;23.174;2024-02-04T01:07:28;6.20;99.90
15700;DHT22;7950;42.744;23.174;2024-02-04T01:09:56;6.20;99.90
15700;DHT22;7950;42.744;23.174;2024-02-04T01:12:25;6.10;99.90
15700;DHT22;7950;42.744;23.174;2024-02-04T01:14:55;6.10;99.90
15700;DHT22;7950;42.744;23.174;2024-02-04T01:17:23;6.00;99.90
15700;DHT22;7950;42.744;23.174;2024-02-04T01:19:52;6.00;99.90
15700;DHT22;7950;42.744;23.174;2024-02-04T01:22:21;5.90;99.90
15700;DHT22;7950;42.744;23.174;2024-02-04T01:24:53;6.00;99.90
15700;DHT22;7950;42.744;23.174;2024-02-04T01:27:22;6.00;99.90
15700;DHT22;7950;42.744;23.174;2024-02-04T01:29:50;6.00;99.90
15700;DHT22;7950;42.744;23.174;2024-02-04T01:32:21;6.00;99.90
15700;DHT22;7950;42.744;23.174;2024-02-04T01:34:50;6.00;99.90
15700;DHT22;7950;42.744;23.174;2024-02-04T01:37:19;6.10;99.90
15700;DHT22;7950;42.744;23.174;2024-02-04T01:39:47;6.20;99.90
15700;DHT22;7950;42.744;23.174;2024-02-04T01:42:16;6.20;99.90
15700;DHT22;7950;42.744;23.174;2024-02-04T01:44:45;6.20;99.90
15700;DHT22;7950;42.744;23.174;2024-02-04T01:47:13;6.20;99.90
15700;DHT22;7950;42.744;23.174;2024-02-04T01:49:44;6.20;99.90
15700;DHT22;7950;42.744;23.174;2024-02-04T01:52:13;6.20;99.90
15700;DHT22;7950;42.744;23.174;2024-02-04T01:54:42;6.10;99.90
15700;DHT22;7950;42.744;23.174;2024-02-04T01:57:12;6.10;99.90
15700;DHT22;7950;42.744;23.174;2024-02-04T01:59:41;6.00;99.90
15700;DHT22;7950;42.744;23.174;2024-02-04T02:02:10;6.00;99.90
15700;DHT22;7950;42.744;23.174;2024-02-04T02:04:38;6.00;99.90
15700;DHT22;7950;42.744;23.174;2024-02-04T02:07:09;6.00;99.90
15700;DHT22;7950;42.744;23.174;2024-02-04T02:09:39;6.20;99.90
15700;DHT22;7950;42.744;23.174;2024-02-04T02:12:09;6.20;99.90
15700;DHT22;7950;42.744;23.174;2024-02-04T02:14:43;6.20;99.90
15700;DHT22;7950;42.744;23.174;2024-02-04T02:17:19;6.20;99.90
15700;DHT22;7950;42.744;23.174;2024-02-04T02:19:57;6.30;99.90
15700;DHT22;7950;42.744;23.174;2024-02-04T02:22:39;6.30;99.90
15700;DHT22;7950;42.744;23.174;2024-02-04T02:25:17;6.40;99.90
15700;DHT22;7950;42.744;23.174;2024-02-04T02:27:49;6.50;99.90
15700;DHT22;7950;42.744;23.174;2024-02-04T02:30:18;6.60;99.90
15700;DHT22;7950;42.744;23.174;2024-02-04T02:32:48;6.70;99.90
15700;DHT22;7950;42.744;23.174;2024-02-04T02:35:18;6.70;99.90
15700;DHT22;7950;42.744;23.174;2024-02-04T02:37:53;6.80;99.90
15700;DHT22;7950;42.744;23.174;2024-02-04T02:40:30;6.80;99.90
15700;DHT22;7950;42.744;23.174;2024-02-04T02:43:06;6.90;99.90
15700;DHT22;7950;42.744;23.174;2024-02-04T02:45:37;6.80;99.90
15700;DHT22;7950;42.744;23.174;2024-02-04T02:48:10;6.80;99.90
15700;DHT22;7950;42.744;23.174;2024-02-04T02:50:39;6.70;99.90
15700;DHT22;7950;42.744;23.174;2024-02-04T02:53:08;6.70;99.90
15700;DHT22;7950;42.744;23.174;2024-02-04T02:55:38;6.70;99.90
15700;DHT22;7950;42.744;23.174;2024-02-04T02:58:07;6.70;99.90
15700;DHT22;7950;42.744;23.174;2024-02-04T03:00:36;6.70;99.90
15700;DHT22;7950;42.744;23.174;2024-02-04T03:03:05;6.70;99.90
15700;DHT22;7950;42.744;23.174;2024-02-04T03:05:34;6.60;99.90
15700;DHT22;7950;42.744;23.174;2024-02-04T03:08:03;6.70;99.90
15700;DHT22;7950;42.744;23.174;2024-02-04T03:10:32;6.70;99.90
15700;DHT22;7950;42.744;23.174;2024-02-04T03:13:02;6.70;99.90
15700;DHT22;7950;42.744;23.174;2024-02-04T03:15:31;6.80;99.90
15700;DHT22;7950;42.744;23.174;2024-02-04T03:18:00;6.90;99.90
15700;DHT22;7950;42.744;23.174;2024-02-04T03:20:28;6.90;99.90
15700;DHT22;7950;42.744;23.174;2024-02-04T03:22:57;7.00;99.90
15700;DHT22;7950;42.744;23.174;2024-02-04T03:25:25;7.00;99.90
15700;DHT22;7950;42.744;23.174;2024-02-04T03:27:56;7.00;99.90
15700;DHT22;7950;42.744;23.174;2024-02-04T03:30:26;6.90;99.90
15700;DHT22;7950;42.744;23.174;2024-02-04T03:32:54;6.80;99.90
15700;DHT22;7950;42.744;23.174;2024-02-04T03:35:23;6.80;99.90
15700;DHT22;7950;42.744;23.174;2024-02-04T03:37:51;6.70;99.90
15700;DHT22;7950;42.744;23.174;2024-02-04T03:40:20;6.60;99.90
15700;DHT22;7950;42.744;23.174;2024-02-04T03:42:51;6.40;99.90
15700;DHT22;7950;42.744;23.174;2024-02-04T03:45:20;6.40;99.90
15700;DHT22;7950;42.744;23.174;2024-02-04T03:47:50;6.40;99.90
15700;DHT22;7950;42.744;23.174;2024-02-04T03:50:18;6.30;99.90
15700;DHT22;7950;42.744;23.174;2024-02-04T03:52:47;6.30;99.90
15700;DHT22;7950;42.744;23.174;2024-02-04T03:55:15;6.30;99.90
15700;DHT22;7950;42.744;23.174;2024-02-04T03:57:44;6.30;99.90
15700;DHT22;7950;42.744;23.174;2024-02-04T04:00:13;6.30;99.90
15700;DHT22;7950;42.744;23.174;2024-02-04T04:02:42;6.40;99.90
15700;DHT22;7950;42.744;23.174;2024-02-04T04:05:12;6.30;99.90
15700;DHT22;7950;42.744;23.174;2024-02-04T04:07:41;6.30;99.90
15700;DHT22;7950;42.744;23.174;2024-02-04T04:10:09;6.30;99.90
15700;DHT22;7950;42.744;23.174;2024-02-04T04:12:38;6.20;99.90
15700;DHT22;7950;42.744;23.174;2024-02-04T04:15:07;6.30;99.90
15700;DHT22;7950;42.744;23.174;2024-02-04T04:17:36;6.40;99.90
15700;DHT22;7950;42.744;23.174;2024-02-04T04:20:06;6.70;99.90
15700;DHT22;7950;42.744;23.174;2024-02-04T04:22:38;6.90;99.90
15700;DHT22;7950;42.744;23.174;2024-02-04T04:25:09;7.00;99.90
15700;DHT22;7950;42.744;23.174;2024-02-04T04:27:37;6.90;99.90
15700;DHT22;7950;42.744;23.174;2024-02-04T04:30:07;6.90;99.90
15700;DHT22;7950;42.744;23.174;2024-02-04T04:32:36;6.90;99.90
15700;DHT22;7950;42.744;23.174;2024-02-04T04:35:05;6.80;99.90
15700;DHT22;7950;42.744;23.174;2024-02-04T04:37:34;6.80;99.90
15700;DHT22;7950;42.744;23.174;2024-02-04T04:40:05;6.80;99.90
15700;DHT22;7950;42.744;23.174;2024-02-04T04:42:34;6.90;99.90
15700;DHT22;7950;42.744;23.174;2024-02-04T04:45:03;7.00;99.90
15700;DHT22;7950;42.744;23.174;2024-02-04T04:47:34;7.00;99.90
15700;DHT22;7950;42.744;23.174;2024-02-04T04:50:04;6.90;99.90
15700;DHT22;7950;42.744;23.174;2024-02-04T04:52:33;6.90;99.90
15700;DHT22;7950;42.744;23.174;2024-02-04T04:55:04;6.90;99.90
15700;DHT22;7950;42.744;23.174;2024-02-04T04:57:33;6.80;99.90
15700;DHT22;7950;42.744;23.174;2024-02-04T05:00:01;6.80;99.90
15700;DHT22;7950;42.744;23.174;2024-02-04T05:02:33;6.80;99.90
15700;DHT22;7950;42.744;23.174;2024-02-04T05:05:02;6.70;99.90
15700;DHT22;7950;42.744;23.174;2024-02-04T05:07:31;6.60;99.90
15700;DHT22;7950;42.744;23.174;2024-02-04T05:10:00;6.60;99.90
15700;DHT22;7950;42.744;23.174;2024-02-04T05:12:32;6.60;99.90
15700;DHT22;7950;42.744;23.174;2024-02-04T05:15:01;6.60;99.90
15700;DHT22;7950;42.744;23.174;2024-02-04T05:17:30;6.60;99.90
15700;DHT22;7950;42.744;23.174;2024-02-04T05:19:59;6.50;99.90
15700;DHT22;7950;42.744;23.174;2024-02-04T05:22:29;6.50;99.90
15700;DHT22;7950;42.744;23.174;2024-02-04T05:24:57;6.50;99.90
15700;DHT22;7950;42.744;23.174;2024-02-04T05:27:26;6.50;99.90
15700;DHT22;7950;42.744;23.174;2024-02-04T05:29:56;6.60;99.90
15700;DHT22;7950;42.744;23.174;2024-02-04T05:32:24;6.60;99.90
15700;DHT22;7950;42.744;23.174;2024-02-04T05:34:53;6.60;99.90
15700;DHT22;7950;42.744;23.174;2024-02-04T05:37:21;6.70;99.90
15700;DHT22;7950;42.744;23.174;2024-02-04T05:39:50;6.80;99.90
15700;DHT22;7950;42.744;23.174;2024-02-04T05:42:19;6.70;99.90
15700;DHT22;7950;42.744;23.174;2024-02-04T05:44:47;6.70;99.90
15700;DHT22;7950;42.744;23.174;2024-02-04T05:47:17;6.70;99.90
15700;DHT22;7950;42.744;23.174;2024-02-04T05:49:46;6.70;99.90
15700;DHT22;7950;42.744;23.174;2024-02-04T05:52:15;6.80;99.90
15700;DHT22;7950;42.744;23.174;2024-02-04T05:54:43;6.80;99.90
15700;DHT22;7950;42.744;23.174;2024-02-04T05:57:12;6.80;99.90
15700;DHT22;7950;42.744;23.174;2024-02-04T05:59:40;6.80;99.90
15700;DHT22;7950;42.744;23.174;2024-02-04T06:02:09;6.70;99.90
15700;DHT22;7950;42.744;23.174;2024-02-04T06:04:39;6.80;99.90
15700;DHT22;7950;42.744;23.174;2024-02-04T06:07:08;6.80;99.90
15700;DHT22;7950;42.744;23.174;2024-02-04T06:09:37;6.80;99.90
15700;DHT22;7950;42.744;23.174;2024-02-04T06:12:06;6.70;99.90
15700;DHT22;7950;42.744;23.174;2024-02-04T06:14:35;6.70;99.90
15700;DHT22;7950;42.744;23.174;2024-02-04T06:17:07;6.60;99.90
15700;DHT22;7950;42.744;23.174;2024-02-04T06:19:38;6.70;99.90
15700;DHT22;7950;42.744;23.174;2024-02-04T06:22:07;6.70;99.90
15700;DHT22;7950;42.744;23.174;2024-02-04T06:24:35;6.70;99.90
15700;DHT22;7950;42.744;23.174;2024-02-04T06:27:08;6.80;99.90
15700;DHT22;7950;42.744;23.174;2024-02-04T06:29:36;6.80;99.90
15700;DHT22;7950;42.744;23.174;2024-02-04T06:32:06;6.80;99.90
15700;DHT22;7950;42.744;23.174;2024-02-04T06:34:35;6.80;99.90
15700;DHT22;7950;42.744;23.174;2024-02-04T06:37:05;6.90;99.90
15700;DHT22;7950;42.744;23.174;2024-02-04T06:39:34;7.00;99.90
15700;DHT22;7950;42.744;23.174;2024-02-04T06:42:03;7.10;99.90
15700;DHT22;7950;42.744;23.174;2024-02-04T06:44:32;7.20;99.90
15700;DHT22;7950;42.744;23.174;2024-02-04T06:47:01;7.20;99.90
15700;DHT22;7950;42.744;23.174;2024-02-04T06:49:29;7.30;99.90
15700;DHT22;7950;42.744;23.174;2024-02-04T06:51:58;7.40;99.90
15700;DHT22;7950;42.744;23.174;2024-02-04T06:54:28;7.50;99.90
15700;DHT22;7950;42.744;23.174;2024-02-04T06:56:56;7.60;99.90
15700;DHT22;7950;42.744;23.174;2024-02-04T06:59:25;7.70;99.90
15700;DHT22;7950;42.744;23.174;2024-02-04T07:01:53;7.70;99.90
15700;DHT22;7950;42.744;23.174;2024-02-04T07:04:22;7.70;99.90
15700;DHT22;7950;42.744;23.174;2024-02-04T07:06:51;7.80;99.90
15700;DHT22;7950;42.744;23.174;2024-02-04T07:09:20;7.80;99.90
15700;DHT22;7950;42.744;23.174;2024-02-04T07:11:51;7.90;99.90
15700;DHT22;7950;42.744;23.174;2024-02-04T07:14:20;8.10;99.90
15700;DHT22;7950;42.744;23.174;2024-02-04T07:16:48;8.40;99.90
15700;DHT22;7950;42.744;23.174;2024-02-04T07:19:17;8.60;99.90
15700;DHT22;7950;42.744;23.174;2024-02-04T07:21:46;8.80;99.90
15700;DHT22;7950;42.744;23.174;2024-02-04T07:24:14;8.90;99.90
15700;DHT22;7950;42.744;23.174;2024-02-04T07:26:43;8.80;99.90
15700;DHT22;7950;42.744;23.174;2024-02-04T07:29:13;8.70;99.90
15700;DHT22;7950;42.744;23.174;2024-02-04T07:31:42;8.60;99.90
15700;DHT22;7950;42.744;23.174;2024-02-04T07:34:11;8.50;99.90
15700;DHT22;7950;42.744;23.174;2024-02-04T07:36:40;8.40;99.90
15700;DHT22;7950;42.744;23.174;2024-02-04T07:39:08;8.30;99.90
15700;DHT22;7950;42.744;23.174;2024-02-04T07:41:37;8.30;99.90
15700;DHT22;7950;42.744;23.174;2024-02-04T07:44:05;8.30;99.90
15700;DHT22;7950;42.744;23.174;2024-02-04T07:46:35;8.20;99.90
15700;DHT22;7950;42.744;23.174;2024-02-04T07:49:04;8.20;99.90
15700;DHT22;7950;42.744;23.174;2024-02-04T07:51:34;8.20;99.90
15700;DHT22;7950;42.744;23.174;2024-02-04T07:54:03;8.20;99.90
15700;DHT22;7950;42.744;23.174;2024-02-04T07:56:32;8.30;99.90
15700;DHT22;7950;42.744;23.174;2024-02-04T07:59:00;8.40;99.90
15700;DHT22;7950;42.744;23.174;2024-02-04T08:01:31;8.50;99.90
15700;DHT22;7950;42.744;23.174;2024-02-04T08:04:01;8.60;99.90
15700;DHT22;7950;42.744;23.174;2024-02-04T08:06:32;8.60;99.90
15700;DHT22;7950;42.744;23.174;2024-02-04T08:09:02;8.90;99.90
15700;DHT22;7950;42.744;23.174;2024-02-04T08:11:30;9.40;99.90
15700;DHT22;7950;42.744;23.174;2024-02-04T08:13:59;9.80;99.90
15700;DHT22;7950;42.744;23.174;2024-02-04T08:16:28;9.70;99.90
15700;DHT22;7950;42.744;23.174;2024-02-04T08:18:57;9.60;99.90
15700;DHT22;7950;42.744;23.174;2024-02-04T08:21:27;9.60;99.90
15700;DHT22;7950;42.744;23.174;2024-02-04T08:23:58;9.60;99.90
15700;DHT22;7950;42.744;23.174;2024-02-04T08:26:27;9.50;99.90
15700;DHT22;7950;42.744;23.174;2024-02-04T08:28:55;9.50;99.90
15700;DHT22;7950;42.744;23.174;2024-02-04T08:31:24;9.40;99.90
15700;DHT22;7950;42.744;23.174;2024-02-04T08:33:52;9.20;99.90
15700;DHT22;7950;42.744;23.174;2024-02-04T08:36:21;9.10;99.90
15700;DHT22;7950;42.744;23.174;2024-02-04T08:38:51;9.00;99.90
15700;DHT22;7950;42.744;23.174;2024-02-04T08:41:20;9.00;99.90
15700;DHT22;7950;42.744;23.174;2024-02-04T08:43:49;9.00;99.90
15700;DHT22;7950;42.744;23.174;2024-02-04T08:46:17;9.10;99.90
15700;DHT22;7950;42.744;23.174;2024-02-04T08:48:46;9.10;99.90
15700;DHT22;7950;42.744;23.174;2024-02-04T08:51:14;9.10;99.90
15700;DHT22;7950;42.744;23.174;2024-02-04T08:53:45;9.20;99.90
15700;DHT22;7950;42.744;23.174;2024-02-04T08:56:15;9.30;99.90
15700;DHT22;7950;42.744;23.174;2024-02-04T08:58:44;9.30;99.90
15700;DHT22;7950;42.744;23.174;2024-02-04T09:01:13;9.30;99.90
15700;DHT22;7950;42.744;23.174;2024-02-04T09:03:42;9.30;99.90
15700;DHT22;7950;42.744;23.174;2024-02-04T09:06:11;9.40;99.90
15700;DHT22;7950;42.744;23.174;2024-02-04T09:08:39;9.50;99.90
15700;DHT22;7950;42.744;23.174;2024-02-04T09:11:08;9.80;99.90
15700;DHT22;7950;42.744;23.174;2024-02-04T09:13:38;10.00;99.90
15700;DHT22;7950;42.744;23.174;2024-02-04T09:16:07;10.00;99.90
15700;DHT22;7950;42.744;23.174;2024-02-04T09:18:36;9.90;99.90
15700;DHT22;7950;42.744;23.174;2024-02-04T09:21:06;9.80;99.90
15700;DHT22;7950;42.744;23.174;2024-02-04T09:23:35;9.80;99.90
15700;DHT22;7950;42.744;23.174;2024-02-04T09:26:04;9.90;99.90
15700;DHT22;7950;42.744;23.174;2024-02-04T09:28:32;10.00;99.90
15700;DHT22;7950;42.744;23.174;2024-02-04T09:31:02;10.10;99.90
15700;DHT22;7950;42.744;23.174;2024-02-04T09:33:31;10.20;99.90
15700;DHT22;7950;42.744;23.174;2024-02-04T09:36:00;10.20;99.90
15700;DHT22;7950;42.744;23.174;2024-02-04T09:38:29;10.20;99.90
15700;DHT22;7950;42.744;23.174;2024-02-04T09:40:58;10.30;99.90
15700;DHT22;7950;42.744;23.174;2024-02-04T09:43:31;10.40;99.90
15700;DHT22;7950;42.744;23.174;2024-02-04T09:46:02;10.60;99.90
15700;DHT22;7950;42.744;23.174;2024-02-04T09:48:32;11.00;99.90
15700;DHT22;7950;42.744;23.174;2024-02-04T09:51:02;11.20;99.90
15700;DHT22;7950;42.744;23.174;2024-02-04T09:53:33;11.20;99.90
15700;DHT22;7950;42.744;23.174;2024-02-04T09:56:04;11.20;99.90
15700;DHT22;7950;42.744;23.174;2024-02-04T09:58:35;11.30;99.90
15700;DHT22;7950;42.744;23.174;2024-02-04T10:01:05;11.70;99.90
15700;DHT22;7950;42.744;23.174;2024-02-04T10:03:36;12.10;99.90
15700;DHT22;7950;42.744;23.174;2024-02-04T10:06:06;12.20;99.50
15700;DHT22;7950;42.744;23.174;2024-02-04T10:08:35;12.20;99.60
15700;DHT22;7950;42.744;23.174;2024-02-04T10:11:05;12.00;99.30
15700;DHT22;7950;42.744;23.174;2024-02-04T10:13:42;11.70;99.90
15700;DHT22;7950;42.744;23.174;2024-02-04T10:16:14;11.40;99.90
15700;DHT22;7950;42.744;23.174;2024-02-04T10:18:44;11.10;99.90
15700;DHT22;7950;42.744;23.174;2024-02-04T10:21:17;10.90;99.90
15700;DHT22;7950;42.744;23.174;2024-02-04T10:23:47;10.80;99.90
15700;DHT22;7950;42.744;23.174;2024-02-04T10:26:16;10.70;99.90
15700;DHT22;7950;42.744;23.174;2024-02-04T10:28:47;10.50;99.90
15700;DHT22;7950;42.744;23.174;2024-02-04T10:31:17;10.50;99.90
15700;DHT22;7950;42.744;23.174;2024-02-04T10:33:46;10.40;99.90
15700;DHT22;7950;42.744;23.174;2024-02-04T10:36:15;10.40;99.90
15700;DHT22;7950;42.744;23.174;2024-02-04T10:38:44;10.40;99.90
15700;DHT22;7950;42.744;23.174;2024-02-04T10:41:15;10.40;99.90
15700;DHT22;7950;42.744;23.174;2024-02-04T10:43:45;10.40;99.90
15700;DHT22;7950;42.744;23.174;2024-02-04T10:46:18;10.30;99.90
15700;DHT22;7950;42.744;23.174;2024-02-04T10:48:52;10.40;99.90
15700;DHT22;7950;42.744;23.174;2024-02-04T10:51:25;10.30;99.90
15700;DHT22;7950;42.744;23.174;2024-02-04T10:53:55;10.30;99.90
15700;DHT22;7950;42.744;23.174;2024-02-04T10:56:30;10.30;99.90
15700;DHT22;7950;42.744;23.174;2024-02-04T10:59:07;10.40;99.90
15700;DHT22;7950;42.744;23.174;2024-02-04T11:01:41;10.40;99.90
15700;DHT22;7950;42.744;23.174;2024-02-04T11:04:11;10.40;99.90
15700;DHT22;7950;42.744;23.174;2024-02-04T11:06:40;10.40;99.90
15700;DHT22;7950;42.744;23.174;2024-02-04T11:09:11;10.40;99.90
15700;DHT22;7950;42.744;23.174;2024-02-04T11:11:42;10.50;99.90
15700;DHT22;7950;42.744;23.174;2024-02-04T11:14:13;10.50;99.90
15700;DHT22;7950;42.744;23.174;2024-02-04T11:17:09;10.60;99.90
15700;DHT22;7950;42.744;23.174;2024-02-04T11:20:01;10.60;99.90
15700;DHT22;7950;42.744;23.174;2024-02-04T11:23:10;10.60;99.90
15700;DHT22;7950;42.744;23.174;2024-02-04T11:25:56;10.60;99.90
15700;DHT22;7950;42.744;23.174;2024-02-04T11:28:27;10.60;99.90
15700;DHT22;7950;42.744;23.174;2024-02-04T11:30:56;10.90;99.90
15700;DHT22;7950;42.744;23.174;2024-02-04T11:33:27;11.20;99.90
15700;DHT22;7950;42.744;23.174;2024-02-04T11:36:02;11.50;99.90
15700;DHT22;7950;42.744;23.174;2024-02-04T11:38:35;11.70;99.90
15700;DHT22;7950;42.744;23.174;2024-02-04T11:41:05;11.90;99.90
15700;DHT22;7950;42.744;23.174;2024-02-04T11:43:36;12.00;99.90
15700;DHT22;7950;42.744;23.174;2024-02-04T11:46:06;12.00;99.90
15700;DHT22;7950;42.744;23.174;2024-02-04T11:48:37;12.20;99.90
15700;DHT22;7950;42.744;23.174;2024-02-04T11:51:06;12.20;98.90
15700;DHT22;7950;42.744;23.174;2024-02-04T11:53:35;12.00;99.40
15700;DHT22;7950;42.744;23.174;2024-02-04T11:56:06;12.00;98.60
15700;DHT22;7950;42.744;23.174;2024-02-04T11:58:36;11.90;98.20
15700;DHT22;7950;42.744;23.174;2024-02-04T12:01:04;11.80;99.20
15700;DHT22;7950;42.744;23.174;2024-02-04T12:03:34;11.70;99.90
15700;DHT22;7950;42.744;23.174;2024-02-04T12:06:06;11.50;99.90
15700;DHT22;7950;42.744;23.174;2024-02-04T12:08:36;11.50;99.90
15700;DHT22;7950;42.744;23.174;2024-02-04T12:11:06;11.30;99.90
15700;DHT22;7950;42.744;23.174;2024-02-04T12:13:36;11.20;99.90
15700;DHT22;7950;42.744;23.174;2024-02-04T12:16:08;11.10;99.90
15700;DHT22;7950;42.744;23.174;2024-02-04T12:18:47;11.00;99.90
15700;DHT22;7950;42.744;23.174;2024-02-04T12:21:18;11.00;99.90
15700;DHT22;7950;42.744;23.174;2024-02-04T12:23:47;11.00;99.90
15700;DHT22;7950;42.744;23.174;2024-02-04T12:26:16;11.00;99.90
15700;DHT22;7950;42.744;23.174;2024-02-04T12:28:45;10.90;99.90
15700;DHT22;7950;42.744;23.174;2024-02-04T12:31:17;10.90;99.90
15700;DHT22;7950;42.744;23.174;2024-02-04T12:33:53;10.90;99.90
15700;DHT22;7950;42.744;23.174;2024-02-04T12:36:28;10.80;99.90
15700;DHT22;7950;42.744;23.174;2024-02-04T12:38:58;10.80;99.90
15700;DHT22;7950;42.744;23.174;2024-02-04T12:41:28;10.70;99.90
15700;DHT22;7950;42.744;23.174;2024-02-04T12:43:58;10.70;99.90
15700;DHT22;7950;42.744;23.174;2024-02-04T12:46:29;10.70;99.90
15700;DHT22;7950;42.744;23.174;2024-02-04T12:48:58;10.80;99.90
15700;DHT22;7950;42.744;23.174;2024-02-04T12:51:33;10.90;99.90
15700;DHT22;7950;42.744;23.174;2024-02-04T12:54:05;11.10;99.90
15700;DHT22;7950;42.744;23.174;2024-02-04T12:56:43;11.20;99.90
15700;DHT22;7950;42.744;23.174;2024-02-04T12:59:24;11.10;99.90
15700;DHT22;7950;42.744;23.174;2024-02-04T13:01:54;11.10;99.90
15700;DHT22;7950;42.744;23.174;2024-02-04T13:04:24;11.00;99.90
15700;DHT22;7950;42.744;23.174;2024-02-04T13:06:54;10.90;99.90
15700;DHT22;7950;42.744;23.174;2024-02-04T13:09:23;10.90;99.90
15700;DHT22;7950;42.744;23.174;2024-02-04T13:11:51;10.90;99.90
15700;DHT22;7950;42.744;23.174;2024-02-04T13:14:31;10.90;99.90
15700;DHT22;7950;42.744;23.174;2024-02-04T13:16:59;11.00;99.90
15700;DHT22;7950;42.744;23.174;2024-02-04T13:19:32;11.10;99.90
15700;DHT22;7950;42.744;23.174;2024-02-04T13:22:03;11.20;99.90
15700;DHT22;7950;42.744;23.174;2024-02-04T13:24:33;11.30;99.90
15700;DHT22;7950;42.744;23.174;2024-02-04T13:27:02;11.20;99.90
15700;DHT22;7950;42.744;23.174;2024-02-04T13:29:34;11.20;99.90
15700;DHT22;7950;42.744;23.174;2024-02-04T13:32:02;11.20;99.90
15700;DHT22;7950;42.744;23.174;2024-02-04T13:34:31;11.20;99.90
15700;DHT22;7950;42.744;23.174;2024-02-04T13:37:00;11.30;99.90
15700;DHT22;7950;42.744;23.174;2024-02-04T13:39:31;11.30;99.90
15700;DHT22;7950;42.744;23.174;2024-02-04T13:41:59;11.30;99.90
15700;DHT22;7950;42.744;23.174;2024-02-04T13:44:28;11.40;99.90
15700;DHT22;7950;42.744;23.174;2024-02-04T13:46:56;11.40;99.90
15700;DHT22;7950;42.744;23.174;2024-02-04T13:49:25;11.40;99.90
15700;DHT22;7950;42.744;23.174;2024-02-04T13:51:54;11.50;99.90
15700;DHT22;7950;42.744;23.174;2024-02-04T13:54:22;11.60;99.90
15700;DHT22;7950;42.744;23.174;2024-02-04T13:56:52;11.50;99.90
15700;DHT22;7950;42.744;23.174;2024-02-04T13:59:21;11.40;99.90
15700;DHT22;7950;42.744;23.174;2024-02-04T14:01:49;11.30;99.90
15700;DHT22;7950;42.744;23.174;2024-02-04T14:04:18;11.20;99.90
15700;DHT22;7950;42.744;23.174;2024-02-04T14:06:47;11.10;99.90
15700;DHT22;7950;42.744;23.174;2024-02-04T14:09:15;11.00;99.90
15700;DHT22;7950;42.744;23.174;2024-02-04T14:11:44;10.90;99.90
15700;DHT22;7950;42.744;23.174;2024-02-04T14:14:13;10.90;99.90
15700;DHT22;7950;42.744;23.174;2024-02-04T14:16:42;10.90;99.90
15700;DHT22;7950;42.744;23.174;2024-02-04T14:19:10;10.80;99.90
15700;DHT22;7950;42.744;23.174;2024-02-04T14:21:41;10.80;99.90
15700;DHT22;7950;42.744;23.174;2024-02-04T14:24:10;10.90;99.90
15700;DHT22;7950;42.744;23.174;2024-02-04T14:26:39;11.10;99.90
15700;DHT22;7950;42.744;23.174;2024-02-04T14:29:08;11.20;99.90
15700;DHT22;7950;42.744;23.174;2024-02-04T14:31:38;11.30;99.90
15700;DHT22;7950;42.744;23.174;2024-02-04T14:34:07;11.30;99.90
15700;DHT22;7950;42.744;23.174;2024-02-04T14:36:35;11.20;99.90
15700;DHT22;7950;42.744;23.174;2024-02-04T14:39:04;11.10;99.90
15700;DHT22;7950;42.744;23.174;2024-02-04T14:41:34;11.00;99.90
15700;DHT22;7950;42.744;23.174;2024-02-04T14:44:03;10.90;99.90
15700;DHT22;7950;42.744;23.174;2024-02-04T14:46:32;10.80;99.90
15700;DHT22;7950;42.744;23.174;2024-02-04T14:49:05;10.80;99.90
15700;DHT22;7950;42.744;23.174;2024-02-04T14:51:34;10.80;99.90
15700;DHT22;7950;42.744;23.174;2024-02-04T14:54:06;10.70;99.90
15700;DHT22;7950;42.744;23.174;2024-02-04T14:56:39;10.70;99.90
15700;DHT22;7950;42.744;23.174;2024-02-04T14:59:09;10.60;99.90
15700;DHT22;7950;42.744;23.174;2024-02-04T15:01:49;10.60;99.90
15700;DHT22;7950;42.744;23.174;2024-02-04T15:04:19;10.50;99.90
15700;DHT22;7950;42.744;23.174;2024-02-04T15:06:48;10.50;99.90
15700;DHT22;7950;42.744;23.174;2024-02-04T15:09:17;10.50;99.90
15700;DHT22;7950;42.744;23.174;2024-02-04T15:11:46;10.40;99.90
15700;DHT22;7950;42.744;23.174;2024-02-04T15:14:15;10.40;99.90
15700;DHT22;7950;42.744;23.174;2024-02-04T15:16:45;10.30;99.90
15700;DHT22;7950;42.744;23.174;2024-02-04T15:19:14;10.20;99.90
15700;DHT22;7950;42.744;23.174;2024-02-04T15:21:46;10.10;99.90
15700;DHT22;7950;42.744;23.174;2024-02-04T15:24:15;10.00;99.90
15700;DHT22;7950;42.744;23.174;2024-02-04T15:26:46;9.90;99.90
15700;DHT22;7950;42.744;23.174;2024-02-04T15:29:16;9.90;99.90
15700;DHT22;7950;42.744;23.174;2024-02-04T15:31:49;9.80;99.90
15700;DHT22;7950;42.744;23.174;2024-02-04T15:34:18;9.60;99.90
15700;DHT22;7950;42.744;23.174;2024-02-04T15:36:48;9.60;99.90
15700;DHT22;7950;42.744;23.174;2024-02-04T15:39:17;9.60;99.90
15700;DHT22;7950;42.744;23.174;2024-02-04T15:41:47;9.50;99.90
15700;DHT22;7950;42.744;23.174;2024-02-04T15:44:16;9.40;99.90
15700;DHT22;7950;42.744;23.174;2024-02-04T15:46:45;9.40;99.90
15700;DHT22;7950;42.744;23.174;2024-02-04T15:49:18;9.30;99.90
15700;DHT22;7950;42.744;23.174;2024-02-04T15:51:49;9.30;99.90
15700;DHT22;7950;42.744;23.174;2024-02-04T15:54:19;9.30;99.90
15700;DHT22;7950;42.744;23.174;2024-02-04T15:56:54;9.20;99.90